createdAt,value
2019-03-02T00:01:36.622Z,1.33
2019-03-02T00:04:09.581Z,1.37
2019-03-02T00:06:35.717Z,1.50
2019-03-02T00:09:04.087Z,1.90
2019-03-02T00:11:31.301Z,1.37
2019-03-02T00:13:58.644Z,1.40
2019-03-02T00:16:25.866Z,1.33
2019-03-02T00:18:53.080Z,1.13
2019-03-02T00:21:20.338Z,1.10
2019-03-02T00:23:50.869Z,1.73
2019-03-02T00:26:16.705Z,1.73
2019-03-02T00:28:43.937Z,1.30
2019-03-02T00:31:11.161Z,1.33
2019-03-02T00:33:38.475Z,1.93
2019-03-02T00:36:05.658Z,1.47
2019-03-02T00:38:32.875Z,1.60
2019-03-02T00:41:00.122Z,1.67
2019-03-02T00:43:28.039Z,1.50
2019-03-02T00:45:57.328Z,1.70
2019-03-02T00:48:24.476Z,1.20
2019-03-02T00:50:51.691Z,1.50
2019-03-02T00:53:54.653Z,1.37
2019-03-02T00:56:21.888Z,1.30
2019-03-02T00:58:49.113Z,1.50
2019-03-02T01:01:16.431Z,1.20
2019-03-02T01:03:43.616Z,1.53
2019-03-02T01:06:12.604Z,1.23
2019-03-02T01:08:39.933Z,1.37
2019-03-02T01:11:07.190Z,1.50
2019-03-02T01:13:34.442Z,1.27
2019-03-02T01:16:01.675Z,1.50
2019-03-02T01:18:28.869Z,1.50
2019-03-02T01:20:56.070Z,1.43
2019-03-02T01:23:23.742Z,1.53
2019-03-02T01:25:52.567Z,1.60
2019-03-02T01:28:19.742Z,1.20
2019-03-02T01:30:46.949Z,1.30
2019-03-02T01:33:14.211Z,1.30
2019-03-02T01:35:41.427Z,1.40
2019-03-02T01:38:08.714Z,1.47
2019-03-02T01:40:37.896Z,1.27
2019-03-02T01:43:05.757Z,1.23
2019-03-02T01:45:33.166Z,1.30
2019-03-02T01:48:00.441Z,1.30
2019-03-02T01:50:27.709Z,1.10
2019-03-02T01:52:54.872Z,1.47
2019-03-02T01:55:22.301Z,1.07
2019-03-02T01:57:52.340Z,1.70
2019-03-02T02:00:22.560Z,1.30
2019-03-02T02:02:49.756Z,1.60
2019-03-02T02:05:17.022Z,1.73
2019-03-02T02:07:44.211Z,1.20
2019-03-02T02:10:11.854Z,1.20
2019-03-02T02:12:39.094Z,1.33
2019-03-02T02:15:08.694Z,1.60
2019-03-02T02:17:35.896Z,1.43
2019-03-02T02:20:03.191Z,1.50
2019-03-02T02:22:30.464Z,1.30
2019-03-02T02:25:00.487Z,1.30
2019-03-02T02:27:26.883Z,1.20
2019-03-02T02:29:54.087Z,1.40
2019-03-02T02:32:24.030Z,1.60
2019-03-02T02:34:50.603Z,1.30
2019-03-02T02:37:17.812Z,1.30
2019-03-02T02:39:44.985Z,1.13
2019-03-02T02:42:12.284Z,1.20
2019-03-02T02:44:39.501Z,1.60
2019-03-02T02:47:11.612Z,1.60
2019-03-02T02:49:35.922Z,1.30
2019-03-02T02:52:03.191Z,1.30
2019-03-02T02:54:30.377Z,1.70
2019-03-02T02:56:58.746Z,1.40
2019-03-02T02:59:26.727Z,1.50
2019-03-02T03:01:53.928Z,1.20
2019-03-02T03:04:21.230Z,1.43
2019-03-02T03:06:48.431Z,1.60
2019-03-02T03:09:25.657Z,1.70
2019-03-02T03:11:52.829Z,1.30
2019-03-02T03:14:21.534Z,1.47
2019-03-02T03:16:49.464Z,1.10
2019-03-02T03:19:17.936Z,1.30
2019-03-02T03:21:45.164Z,1.30
2019-03-02T03:24:12.376Z,1.40
2019-03-02T03:26:39.621Z,2.00
2019-03-02T03:29:09.854Z,1.30
2019-03-02T03:31:36.042Z,1.40
2019-03-02T03:34:03.248Z,1.53
2019-03-02T03:36:34.070Z,1.00
2019-03-02T03:39:02.757Z,1.50
2019-03-02T03:41:28.723Z,1.60
2019-03-02T03:43:55.938Z,1.20
2019-03-02T03:46:23.895Z,1.50
2019-03-02T03:48:56.201Z,1.10
2019-03-02T03:51:20.369Z,1.27
2019-03-02T03:53:47.567Z,1.30
2019-03-02T03:56:14.820Z,1.20
2019-03-02T03:58:41.997Z,1.60
2019-03-02T04:01:17.091Z,1.20
2019-03-02T04:03:38.352Z,1.20
2019-03-02T04:06:05.589Z,1.30
2019-03-02T04:08:32.804Z,1.47
2019-03-02T04:11:04.691Z,1.20
2019-03-02T04:13:29.226Z,0.90
2019-03-02T04:15:56.664Z,1.37
2019-03-02T04:18:58.852Z,1.10
2019-03-02T04:21:37.540Z,1.03
2019-03-02T04:24:04.837Z,1.13
2019-03-02T04:26:36.855Z,1.10
2019-03-02T04:29:08.872Z,1.00
2019-03-02T04:31:30.637Z,1.10
2019-03-02T04:33:57.920Z,1.20
2019-03-02T04:36:25.222Z,1.27
2019-03-02T04:38:52.412Z,0.90
2019-03-02T04:41:19.661Z,1.03
2019-03-02T04:43:46.891Z,1.33
2019-03-02T04:46:15.422Z,1.23
2019-03-02T04:48:43.243Z,1.30
2019-03-02T04:51:10.470Z,1.13
2019-03-02T04:53:37.654Z,1.27
2019-03-02T04:56:04.872Z,1.10
2019-03-02T04:58:32.067Z,1.30
2019-03-02T05:00:59.298Z,1.10
2019-03-02T05:03:26.521Z,1.50
2019-03-02T05:05:53.715Z,1.20
2019-03-02T05:08:20.913Z,1.30
2019-03-02T05:10:48.182Z,1.07
2019-03-02T05:13:15.361Z,1.20
2019-03-02T05:15:42.787Z,1.20
2019-03-02T05:18:10.013Z,1.10
2019-03-02T05:20:37.753Z,1.00
2019-03-02T05:23:06.455Z,1.03
2019-03-02T05:25:33.706Z,1.37
2019-03-02T05:28:03.761Z,1.20
2019-03-02T05:30:30.601Z,1.30
2019-03-02T05:32:58.944Z,1.43
2019-03-02T05:35:26.121Z,1.10
2019-03-02T05:37:53.452Z,1.30
2019-03-02T05:40:20.599Z,0.90
2019-03-02T05:42:51.534Z,1.43
2019-03-02T05:45:16.945Z,1.17
2019-03-02T05:47:44.173Z,1.40
2019-03-02T05:50:11.407Z,1.10
2019-03-02T05:52:38.627Z,0.90
2019-03-02T05:55:06.092Z,1.00
2019-03-02T05:57:33.295Z,1.53
2019-03-02T06:00:01.880Z,1.00
2019-03-02T06:02:29.642Z,1.30
2019-03-02T06:04:57.196Z,1.33
2019-03-02T06:07:25.354Z,1.03
2019-03-02T06:09:52.569Z,1.50
2019-03-02T06:12:19.785Z,1.10
2019-03-02T06:14:47.130Z,1.00
2019-03-02T06:17:14.327Z,1.20
2019-03-02T06:19:41.515Z,1.20
2019-03-02T06:22:08.802Z,1.17
2019-03-02T06:24:37.757Z,1.13
2019-03-02T06:27:07.783Z,1.10
2019-03-02T06:29:34.248Z,0.90
2019-03-02T06:32:01.481Z,1.27
2019-03-02T06:34:28.714Z,1.10
2019-03-02T06:36:55.924Z,1.30
2019-03-02T06:39:23.182Z,0.93
2019-03-02T06:41:50.361Z,1.03
2019-03-02T06:44:17.608Z,1.40
2019-03-02T06:46:44.764Z,0.90
2019-03-02T06:49:11.998Z,1.00
2019-03-02T06:51:39.243Z,1.03
2019-03-02T06:54:09.115Z,1.40
2019-03-02T06:56:35.940Z,1.10
2019-03-02T06:59:05.007Z,1.10
2019-03-02T07:01:32.284Z,1.27
2019-03-02T07:03:59.458Z,1.10
2019-03-02T07:06:27.307Z,1.20
2019-03-02T07:08:54.533Z,1.30
2019-03-02T07:11:21.706Z,1.10
2019-03-02T07:13:48.931Z,1.20
2019-03-02T07:16:16.591Z,1.40
2019-03-02T07:18:50.850Z,1.13
2019-03-02T07:21:18.102Z,1.07
2019-03-02T07:23:45.284Z,1.20
2019-03-02T07:26:15.878Z,1.20
2019-03-02T07:28:42.254Z,1.20
2019-03-02T07:31:10.288Z,1.13
2019-03-02T07:33:37.515Z,1.57
2019-03-02T07:36:04.715Z,1.00
2019-03-02T07:38:31.967Z,1.47
2019-03-02T07:40:59.173Z,1.00
2019-03-02T07:43:26.443Z,1.30
2019-03-02T07:45:53.673Z,1.00
2019-03-02T07:48:20.899Z,1.40
2019-03-02T07:50:48.166Z,1.03
2019-03-02T07:53:15.346Z,1.00
2019-03-02T07:55:42.684Z,1.13
2019-03-02T07:58:09.917Z,1.00
2019-03-02T08:00:37.850Z,1.00
2019-03-02T08:03:06.231Z,0.90
2019-03-02T08:05:33.476Z,1.10
2019-03-02T08:08:00.697Z,1.00
2019-03-02T08:10:27.931Z,0.87
2019-03-02T08:12:57.817Z,1.10
2019-03-02T08:15:25.814Z,0.90
2019-03-02T08:17:53.195Z,1.20
2019-03-02T08:20:23.892Z,1.00
2019-03-02T08:22:49.749Z,1.40
2019-03-02T08:25:16.953Z,1.00
2019-03-02T08:27:44.155Z,1.30
2019-03-02T08:30:13.804Z,1.00
2019-03-02T08:32:40.998Z,1.33
2019-03-02T08:35:08.836Z,1.10
2019-03-02T08:37:36.066Z,1.10
2019-03-02T08:40:03.661Z,1.10
2019-03-02T08:42:31.018Z,1.20
2019-03-02T08:44:58.228Z,1.30
2019-03-02T08:47:25.417Z,1.50
2019-03-02T08:49:54.730Z,1.13
2019-03-02T08:52:21.907Z,0.90
2019-03-02T08:54:49.165Z,1.00
2019-03-02T08:57:19.569Z,0.90
2019-03-02T08:59:45.526Z,1.73
2019-03-02T09:02:12.766Z,1.27
2019-03-02T09:04:39.945Z,1.20
2019-03-02T09:07:07.802Z,0.77
2019-03-02T09:09:36.435Z,1.00
2019-03-02T09:12:03.799Z,1.20
2019-03-02T09:14:30.955Z,1.10
2019-03-02T09:16:58.132Z,1.33
2019-03-02T09:19:25.368Z,1.10
2019-03-02T09:21:52.536Z,0.90
2019-03-02T09:24:19.850Z,1.07
2019-03-02T09:26:47.031Z,1.13
2019-03-02T09:29:14.254Z,1.00
2019-03-02T09:31:42.693Z,0.90
2019-03-02T09:34:09.887Z,1.10
2019-03-02T09:36:37.130Z,1.10
2019-03-02T09:39:06.242Z,1.30
2019-03-02T09:41:33.407Z,0.90
2019-03-02T09:44:01.842Z,0.97
2019-03-02T09:46:29.235Z,1.23
2019-03-02T09:48:56.884Z,0.90
2019-03-02T09:51:25.741Z,0.80
2019-03-02T09:53:52.950Z,1.00
2019-03-02T09:56:20.166Z,1.10
2019-03-02T09:58:47.667Z,0.93
2019-03-02T10:01:14.879Z,1.20
2019-03-02T10:03:42.052Z,1.30
2019-03-02T10:06:09.274Z,0.83
2019-03-02T10:08:36.477Z,1.00
2019-03-02T10:11:06.151Z,1.10
2019-03-02T10:13:32.897Z,1.17
2019-03-02T10:16:00.609Z,1.10
2019-03-02T10:18:29.234Z,0.80
2019-03-02T10:20:56.412Z,1.00
2019-03-02T10:23:23.664Z,1.07
2019-03-02T10:25:50.905Z,1.20
2019-03-02T10:28:18.156Z,1.07
2019-03-02T10:30:45.315Z,1.20
2019-03-02T10:33:12.547Z,1.07
2019-03-02T10:35:39.714Z,0.90
2019-03-02T10:38:06.952Z,1.10
2019-03-02T10:40:34.141Z,1.10
2019-03-02T10:43:01.367Z,1.00
2019-03-02T10:45:28.784Z,1.10
2019-03-02T10:47:56.084Z,1.47
2019-03-02T10:50:24.857Z,1.00
2019-03-02T10:52:52.366Z,0.97
2019-03-02T10:55:19.768Z,1.00
2019-03-02T10:57:47.064Z,1.03
2019-03-02T11:00:19.928Z,0.90
2019-03-02T11:02:47.122Z,1.00
2019-03-02T11:05:34.085Z,1.10
2019-03-02T11:08:25.453Z,1.07
2019-03-02T11:11:18.106Z,1.03
2019-03-02T11:14:13.650Z,0.90
2019-03-02T11:16:59.194Z,0.87
2019-03-02T11:19:55.048Z,1.00
2019-03-02T11:22:44.874Z,1.10
2019-03-02T11:25:25.031Z,1.00
2019-03-02T11:28:14.462Z,1.00
2019-03-02T11:30:57.056Z,0.90
2019-03-02T11:33:42.266Z,0.90
2019-03-02T11:36:41.167Z,0.90
2019-03-02T11:39:17.221Z,1.00
2019-03-02T11:41:56.411Z,1.07
2019-03-02T11:44:38.037Z,1.00
2019-03-02T11:47:27.816Z,1.10
2019-03-02T11:50:17.359Z,1.00
2019-03-02T11:52:50.507Z,1.00
2019-03-02T11:55:46.664Z,1.40
2019-03-02T11:58:42.441Z,1.00
2019-03-02T12:01:35.477Z,1.00
2019-03-02T12:04:20.672Z,0.90
2019-03-02T12:07:06.169Z,0.90
2019-03-02T12:09:51.731Z,0.90
2019-03-02T12:12:51.380Z,1.10
2019-03-02T12:15:39.527Z,1.00
2019-03-02T12:18:32.221Z,0.80
2019-03-02T12:21:21.153Z,0.90
2019-03-02T12:24:15.302Z,0.90
2019-03-02T12:27:00.786Z,0.93
2019-03-02T12:30:02.982Z,1.00
2019-03-02T12:32:52.054Z,0.93
2019-03-02T12:35:29.270Z,1.10
2019-03-02T12:38:11.472Z,0.90
2019-03-02T12:41:16.730Z,0.90
2019-03-02T12:44:02.151Z,0.93
2019-03-02T12:46:58.320Z,0.90
2019-03-02T12:49:47.119Z,1.10
2019-03-02T12:52:32.781Z,0.90
2019-03-02T12:55:09.400Z,1.00
2019-03-02T12:57:48.080Z,1.17
2019-03-02T13:00:31.252Z,0.90
2019-03-02T13:03:16.686Z,0.90
2019-03-02T13:06:09.488Z,0.90
2019-03-02T13:08:50.592Z,0.90
2019-03-02T13:11:33.290Z,0.90
2019-03-02T13:14:17.633Z,1.20
2019-03-02T13:17:03.753Z,1.00
2019-03-02T13:19:53.665Z,0.90
2019-03-02T13:22:35.443Z,0.90
2019-03-02T13:25:20.757Z,0.90
2019-03-02T13:28:07.948Z,1.00
2019-03-02T13:30:42.505Z,1.10
2019-03-02T13:33:35.744Z,1.00
2019-03-02T13:36:35.144Z,0.97
2019-03-02T13:39:15.500Z,0.90
2019-03-02T13:41:55.836Z,1.43
2019-03-02T13:44:54.587Z,0.93
2019-03-02T13:47:30.737Z,1.00
2019-03-02T13:50:17.496Z,1.00
2019-03-02T13:53:10.360Z,1.03
2019-03-02T13:55:45.944Z,1.00
2019-03-02T13:58:33.891Z,1.07
2019-03-02T14:01:21.240Z,1.00
2019-03-02T14:03:59.015Z,1.00
2019-03-02T14:06:44.221Z,0.83
2019-03-02T14:09:21.896Z,1.00
2019-03-02T14:12:07.700Z,0.90
2019-03-02T14:14:54.437Z,1.17
2019-03-02T14:17:42.871Z,0.87
2019-03-02T14:20:44.409Z,0.90
2019-03-02T14:23:32.226Z,0.90
2019-03-02T14:26:05.531Z,0.90
2019-03-02T14:28:41.496Z,1.00
2019-03-02T14:31:20.398Z,1.03
2019-03-02T14:34:08.635Z,0.90
2019-03-02T14:36:46.924Z,0.80
2019-03-02T14:39:24.795Z,0.90
2019-03-02T14:42:17.499Z,0.90
2019-03-02T14:45:13.252Z,1.07
2019-03-02T14:48:13.254Z,1.00
2019-03-02T14:50:53.853Z,1.10
2019-03-02T14:53:52.931Z,1.00
2019-03-02T14:56:29.416Z,0.90
2019-03-02T14:59:16.152Z,0.90
2019-03-02T15:02:01.567Z,1.20
2019-03-02T15:04:57.455Z,1.10
2019-03-02T15:07:59.000Z,0.80
2019-03-02T15:10:48.307Z,0.93
2019-03-02T15:13:47.187Z,1.00
2019-03-02T15:16:51.950Z,1.03
2019-03-02T15:19:39.587Z,1.33
2019-03-02T15:22:20.514Z,1.20
2019-03-02T15:25:08.842Z,1.00
2019-03-02T15:27:56.370Z,1.00
2019-03-02T15:30:44.474Z,0.90
2019-03-02T15:33:37.536Z,1.30
2019-03-02T15:36:34.826Z,1.10
2019-03-02T15:39:20.642Z,1.00
2019-03-02T15:41:59.710Z,1.10
2019-03-02T15:44:58.585Z,0.97
2019-03-02T15:47:50.770Z,1.00
2019-03-02T15:50:23.018Z,1.03
2019-03-02T15:53:01.406Z,1.10
2019-03-02T15:55:56.334Z,0.90
2019-03-02T15:58:41.855Z,1.20
2019-03-02T16:01:34.837Z,0.90
2019-03-02T16:04:22.488Z,1.20
2019-03-02T16:07:07.816Z,0.90
2019-03-02T16:10:00.804Z,1.10
2019-03-02T16:13:07.406Z,1.13
2019-03-02T16:15:49.006Z,1.40
2019-03-02T16:18:38.533Z,0.90
2019-03-02T16:21:24.183Z,1.00
2019-03-02T16:24:10.830Z,0.90
2019-03-02T16:26:57.659Z,0.80
2019-03-02T16:29:42.935Z,0.87
2019-03-02T16:32:32.832Z,0.90
2019-03-02T16:35:25.835Z,0.87
2019-03-02T16:38:18.675Z,1.10
2019-03-02T16:41:17.740Z,1.00
2019-03-02T16:44:03.141Z,0.80
2019-03-02T16:46:49.692Z,0.90
2019-03-02T16:49:32.163Z,1.00
2019-03-02T16:52:17.592Z,0.90
2019-03-02T16:55:05.975Z,1.00
2019-03-02T16:57:41.356Z,1.10
2019-03-02T17:00:17.874Z,1.00
2019-03-02T17:02:54.013Z,1.00
2019-03-02T17:05:39.796Z,0.90
2019-03-02T17:08:45.656Z,0.93
2019-03-02T17:11:23.386Z,1.00
2019-03-02T17:14:10.234Z,0.90
2019-03-02T17:16:55.531Z,1.00
2019-03-02T17:19:41.434Z,1.00
2019-03-02T17:22:33.978Z,1.10
2019-03-02T17:25:16.203Z,1.00
2019-03-02T17:27:58.364Z,1.07
2019-03-02T17:30:36.078Z,0.93
2019-03-02T17:33:32.432Z,1.10
2019-03-02T17:36:15.546Z,1.00
2019-03-02T17:39:06.961Z,1.10
2019-03-02T17:41:55.031Z,0.90
2019-03-02T17:44:34.034Z,0.90
2019-03-02T17:47:22.958Z,0.90
2019-03-02T17:50:09.987Z,1.20
2019-03-02T17:53:04.248Z,1.03
2019-03-02T17:55:40.143Z,1.10
2019-03-02T17:58:28.083Z,1.10
2019-03-02T18:01:28.730Z,0.90
2019-03-02T18:04:09.548Z,0.90
2019-03-02T18:06:55.797Z,0.90
2019-03-02T18:09:31.756Z,1.00
2019-03-02T18:12:23.435Z,1.00
2019-03-02T18:15:12.987Z,0.90
2019-03-02T18:17:55.453Z,0.90
2019-03-02T18:20:23.268Z,0.80
2019-03-02T18:22:50.342Z,0.90
2019-03-02T18:25:17.535Z,0.93
2019-03-02T18:27:44.776Z,0.90
2019-03-02T18:30:14.249Z,0.90
2019-03-02T18:32:41.513Z,1.07
2019-03-02T18:35:08.672Z,0.97
2019-03-02T18:37:35.869Z,0.93
2019-03-02T18:40:04.083Z,1.10
2019-03-02T18:42:31.861Z,1.00
2019-03-02T18:45:02.692Z,1.10
2019-03-02T18:47:30.002Z,1.10
2019-03-02T18:50:10.092Z,1.10
2019-03-02T18:52:57.066Z,1.10
2019-03-02T18:55:25.855Z,0.90
2019-03-02T18:57:54.158Z,0.90
2019-03-02T19:00:25.198Z,0.97
2019-03-02T19:02:52.370Z,1.17
2019-03-02T19:05:28.402Z,1.07
2019-03-02T19:07:56.972Z,1.17
2019-03-02T19:10:24.197Z,1.03
2019-03-02T19:12:51.414Z,0.93
2019-03-02T19:15:18.649Z,1.00
2019-03-02T19:17:46.010Z,0.90
2019-03-02T19:20:13.226Z,1.07
2019-03-02T19:22:40.599Z,1.00
2019-03-02T19:25:07.844Z,1.20
2019-03-02T19:27:35.037Z,1.10
2019-03-02T19:30:02.269Z,1.33
2019-03-02T19:32:29.498Z,1.20
2019-03-02T19:34:56.747Z,1.10
2019-03-02T19:37:23.963Z,1.00
2019-03-02T19:39:51.163Z,0.97
2019-03-02T19:42:18.369Z,1.00
2019-03-02T19:44:45.617Z,1.10
2019-03-02T19:47:12.794Z,1.20
2019-03-02T19:49:39.977Z,1.20
2019-03-02T19:52:07.239Z,1.20
2019-03-02T19:54:34.412Z,1.20
2019-03-02T19:57:01.623Z,1.20
2019-03-02T19:59:28.801Z,1.10
2019-03-02T20:01:55.974Z,1.10
2019-03-02T20:04:23.216Z,1.30
2019-03-02T20:06:50.446Z,1.20
2019-03-02T20:09:17.664Z,1.10
2019-03-02T20:11:44.884Z,1.13
2019-03-02T20:14:12.079Z,1.43
2019-03-02T20:16:39.277Z,1.10
2019-03-02T20:19:06.519Z,1.10
2019-03-02T20:21:33.922Z,1.10
2019-03-02T20:24:01.122Z,1.30
2019-03-02T20:26:28.358Z,1.00
2019-03-02T20:28:55.551Z,1.10
2019-03-02T20:31:22.830Z,1.10
2019-03-02T20:33:50.020Z,1.23
2019-03-02T20:36:17.198Z,1.40
2019-03-02T20:38:44.454Z,1.20
2019-03-02T20:41:11.668Z,1.30
2019-03-02T20:43:38.887Z,1.10
2019-03-02T20:46:06.107Z,1.47
2019-03-02T20:48:33.395Z,1.00
2019-03-02T20:51:00.582Z,1.30
2019-03-02T20:53:27.767Z,1.07
2019-03-02T20:55:54.973Z,1.13
2019-03-02T20:58:22.179Z,1.37
2019-03-02T21:00:49.412Z,1.10
2019-03-02T21:03:16.652Z,1.50
2019-03-02T21:05:43.861Z,1.10
2019-03-02T21:08:11.052Z,1.57
2019-03-02T21:10:38.248Z,1.03
2019-03-02T21:13:05.444Z,1.23
2019-03-02T21:15:34.333Z,1.17
2019-03-02T21:18:01.868Z,1.20
2019-03-02T21:20:29.055Z,1.20
2019-03-02T21:22:56.323Z,1.30
2019-03-02T21:25:23.577Z,1.20
2019-03-02T21:27:50.795Z,1.20
2019-03-02T21:30:18.083Z,1.10
2019-03-02T21:32:45.284Z,1.40
2019-03-02T21:35:12.490Z,1.50
2019-03-02T21:37:39.742Z,1.43
2019-03-02T21:40:10.444Z,1.03
2019-03-02T21:42:37.691Z,1.37
2019-03-02T21:45:06.219Z,1.40
2019-03-02T21:47:33.431Z,1.30
2019-03-02T21:50:00.672Z,1.20
2019-03-02T21:52:27.883Z,1.60
2019-03-02T21:54:55.095Z,1.27
2019-03-02T21:57:22.311Z,1.40
2019-03-02T21:59:49.503Z,1.27
2019-03-02T22:02:16.748Z,1.73
2019-03-02T22:04:43.946Z,1.90
2019-03-02T22:07:11.131Z,1.30
2019-03-02T22:09:38.359Z,1.40
2019-03-02T22:12:05.553Z,1.40
2019-03-02T22:14:32.798Z,1.40
2019-03-02T22:17:01.894Z,1.90
2019-03-02T22:19:29.073Z,1.40
2019-03-02T22:21:56.414Z,1.60
2019-03-02T22:24:23.700Z,1.77
2019-03-02T22:26:50.887Z,1.57
2019-03-02T22:29:18.118Z,1.63
2019-03-02T22:31:45.354Z,1.37
2019-03-02T22:34:12.594Z,1.33
2019-03-02T22:36:39.826Z,1.60
2019-03-02T22:39:07.050Z,1.70
2019-03-02T22:41:34.257Z,1.93
2019-03-02T22:44:01.481Z,1.50
2019-03-02T22:46:28.706Z,1.53
2019-03-02T22:48:55.906Z,1.70
2019-03-02T22:51:23.143Z,1.90
2019-03-02T22:53:50.419Z,1.93
2019-03-02T22:56:17.595Z,2.10
2019-03-02T22:58:44.416Z,2.27
2019-03-02T23:01:45.554Z,2.13
2019-03-02T23:04:12.894Z,2.30
2019-03-02T23:06:40.156Z,1.97
2019-03-02T23:09:09.354Z,2.20
2019-03-02T23:11:36.580Z,2.30
2019-03-02T23:14:03.836Z,2.50
2019-03-02T23:16:31.015Z,1.70
2019-03-02T23:18:58.264Z,2.17
2019-03-02T23:21:25.469Z,2.20
2019-03-02T23:23:52.749Z,1.80
2019-03-02T23:26:19.981Z,1.93
2019-03-02T23:28:47.229Z,2.43
2019-03-02T23:31:14.948Z,2.50
2019-03-02T23:33:42.167Z,2.33
2019-03-02T23:36:09.387Z,2.10
2019-03-02T23:38:36.602Z,1.80
2019-03-02T23:41:03.892Z,2.30
2019-03-02T23:43:31.029Z,2.07
2019-03-02T23:45:58.267Z,2.20
2019-03-02T23:48:25.472Z,1.90
2019-03-02T23:50:52.691Z,2.40
2019-03-02T23:53:19.883Z,2.20
2019-03-02T23:55:47.180Z,2.20
2019-03-02T23:58:14.419Z,2.10
